Time;durP1;ratioP1;P1;durP2;ratioP2;P2;SDS_P1;SDS_P2;PMS_P1;PMS_P2;Temp;Humidity;BMP_temperature;BMP_pressure;BME280_temperature;BME280_humidity;BME280_pressure;Samples;Min_cycle;Max_cycle;Signal;HPM_P1;HPM_P2
2022/05/27 00:00:46;;;;;;;3.92;1.60;;;;;;;12.48;77.91;100570.00;1722401;83;20944;-43
2022/05/27 00:03:13;;;;;;;2.25;1.35;;;;;;;12.47;77.78;100565.69;1722381;83;21011;-43
2022/05/27 00:05:40;;;;;;;6.75;1.70;;;;;;;12.47;77.49;100566.99;1722268;83;21153;-43
2022/05/27 00:08:09;;;;;;;3.65;1.50;;;;;;;12.49;77.55;100566.51;1722348;83;20857;-43
2022/05/27 00:10:36;;;;;;;3.95;1.60;;;;;;;12.48;77.40;100566.53;1722253;83;20916;-44
2022/05/27 00:13:05;;;;;;;4.00;1.67;;;;;;;12.49;77.39;100566.94;1722443;83;21422;-44
2022/05/27 00:15:32;;;;;;;1.80;1.65;;;;;;;12.48;77.16;100568.70;1722277;83;20949;-43
2022/05/27 00:17:58;;;;;;;2.45;0.98;;;;;;;12.50;76.88;100572.10;1722146;83;22228;-43
2022/05/27 00:20:26;;;;;;;3.22;1.30;;;;;;;12.58;76.75;100571.92;1722350;83;21039;-43
2022/05/27 00:22:53;;;;;;;2.60;1.77;;;;;;;12.58;76.56;100573.22;1722296;83;20956;-43
2022/05/27 00:25:20;;;;;;;5.85;1.72;;;;;;;12.62;76.66;100576.57;1722309;83;20940;-44
2022/05/27 00:27:48;;;;;;;1.22;1.22;;;;;;;12.62;76.50;100568.35;1722279;83;20908;-43
2022/05/27 00:30:15;;;;;;;4.08;1.60;;;;;;;12.58;76.51;100571.92;1722171;83;21056;-43
2022/05/27 00:32:42;;;;;;;3.22;1.37;;;;;;;12.54;76.61;100570.73;1722317;83;20945;-43
2022/05/27 00:35:09;;;;;;;1.85;1.60;;;;;;;12.51;76.91;100566.48;1722169;83;20893;-43
2022/05/27 00:37:37;;;;;;;4.28;1.50;;;;;;;12.49;76.67;100565.20;1722356;83;20937;-44
2022/05/27 00:40:05;;;;;;;1.62;1.52;;;;;;;12.49;76.95;100563.91;1722277;83;21050;-43
2022/05/27 00:42:32;;;;;;;2.83;1.60;;;;;;;12.49;76.93;100564.34;1722325;81;21318;-44
2022/05/27 00:44:59;;;;;;;4.55;1.32;;;;;;;12.50;76.55;100562.15;1719266;83;21486;-44
2022/05/27 00:47:26;;;;;;;1.67;1.45;;;;;;;12.55;76.57;100565.52;1714675;83;20999;-43
2022/05/27 00:50:00;;;;;;;3.75;1.35;;;;;;;12.51;76.64;100563.89;1714298;83;21502;-44
2022/05/27 00:52:30;;;;;;;3.42;1.17;;;;;;;12.43;77.17;100556.71;1714668;82;20996;-43
2022/05/27 00:54:57;;;;;;;9.20;1.55;;;;;;;12.36;77.76;100563.36;1714618;82;21166;-43
2022/05/27 01:00:37;;;;;;;3.60;1.50;;;;;;;12.36;78.05;100560.77;1803674;78;22778;-45
2022/05/27 01:03:04;;;;;;;5.72;1.77;;;;;;;12.28;78.22;100561.40;1792915;80;20983;-45
2022/05/27 01:05:31;;;;;;;1.60;1.42;;;;;;;12.22;78.76;100557.62;1785909;79;21247;-45
2022/05/27 01:08:02;;;;;;;3.33;1.30;;;;;;;12.16;79.11;100566.44;1765687;80;21390;-45
2022/05/27 01:10:29;;;;;;;3.40;1.50;;;;;;;12.10;79.20;100560.52;1792823;80;20979;-45
2022/05/27 01:13:08;;;;;;;4.25;1.77;;;;;;;12.11;79.33;100559.64;1787705;79;20912;-45
2022/05/27 01:16:02;;;;;;;2.00;1.50;;;;;;;12.10;79.44;100558.77;1783738;80;21334;-43
2022/05/27 01:22:07;;;;;;;4.67;1.70;;;;;;;12.00;80.20;100557.25;1776284;79;21014;-44
2022/05/27 01:24:58;;;;;;;7.05;2.02;;;;;;;11.92;80.74;100552.23;1783564;80;21118;-44
2022/05/27 01:28:04;;;;;;;6.97;1.77;;;;;;;11.87;82.13;100549.77;1783920;79;20935;-45
2022/05/27 01:30:56;;;;;;;7.03;1.90;;;;;;;11.86;82.42;100542.00;1783892;79;20881;-45
2022/05/27 01:34:05;;;;;;;1.50;1.40;;;;;;;11.83;83.07;100551.16;1761480;79;21175;-44
2022/05/27 01:37:06;;;;;;;1.60;1.50;;;;;;;11.80;83.38;100552.06;1767925;80;20923;-45
2022/05/27 01:39:45;;;;;;;1.30;1.30;;;;;;;11.75;83.91;100548.72;1765369;80;20940;-44
2022/05/27 01:42:26;;;;;;;2.05;1.50;;;;;;;11.67;84.41;100554.53;1767339;79;20959;-45
2022/05/27 01:45:04;;;;;;;3.55;1.57;;;;;;;11.55;85.00;100547.41;1766329;80;20924;-43
2022/05/27 01:48:03;;;;;;;3.02;1.37;;;;;;;11.46;85.37;100560.11;1760315;80;21404;-44
2022/05/27 01:50:39;;;;;;;6.55;1.42;;;;;;;11.43;85.72;100556.28;1732814;80;20889;-44
2022/05/27 01:53:15;;;;;;;7.55;1.80;;;;;;;11.47;85.36;100559.22;1770679;80;20984;-44
2022/05/27 01:56:02;;;;;;;2.60;1.57;;;;;;;11.62;84.91;100558.50;1763759;80;21561;-44
2022/05/27 01:58:37;;;;;;;7.35;1.85;;;;;;;11.73;84.14;100558.27;1734152;80;21000;-45
2022/05/27 02:01:06;;;;;;;3.75;1.65;;;;;;;11.88;83.27;100564.44;1770742;80;21256;-44
2022/05/27 02:03:36;;;;;;;5.72;1.72;;;;;;;12.01;82.07;100553.38;1766854;80;21194;-45
2022/05/27 02:06:25;;;;;;;3.25;1.55;;;;;;;12.15;81.65;100553.05;1773438;80;21565;-45
2022/05/27 02:09:06;;;;;;;5.53;1.75;;;;;;;12.26;80.77;100552.80;1767304;80;20939;-45
2022/05/27 02:11:34;;;;;;;2.37;1.75;;;;;;;12.31;80.83;100550.07;1766898;80;20936;-44
2022/05/27 02:14:26;;;;;;;1.98;1.57;;;;;;;12.31;80.39;100552.67;1771080;80;21061;-44
2022/05/27 02:17:03;;;;;;;1.67;1.57;;;;;;;12.34;80.13;100549.56;1774468;80;21003;-44
2022/05/27 02:19:35;;;;;;;3.12;1.75;;;;;;;12.36;80.16;100545.19;1744043;80;20948;-45
2022/05/27 02:22:07;;;;;;;2.90;1.32;;;;;;;12.35;80.33;100547.38;1764061;80;21615;-44
2022/05/27 02:24:46;;;;;;;4.72;1.75;;;;;;;12.39;79.62;100547.30;1764701;80;20977;-44
2022/05/27 02:27:20;;;;;;;5.70;1.40;;;;;;;12.49;79.76;100546.16;1741322;80;21254;-45
2022/05/27 02:29:51;;;;;;;2.17;1.70;;;;;;;12.53;79.26;100549.13;1765020;80;20939;-45
2022/05/27 02:32:29;;;;;;;2.22;1.52;;;;;;;12.57;78.82;100550.74;1773689;80;20984;-45
2022/05/27 02:35:11;;;;;;;2.67;1.62;;;;;;;12.61;79.10;100549.77;1775602;80;21059;-44
2022/05/27 02:37:50;;;;;;;2.27;1.47;;;;;;;12.65;78.26;100547.50;1766541;80;20923;-45
2022/05/27 02:40:24;;;;;;;7.20;1.50;;;;;;;12.72;78.64;100546.03;1770438;80;21071;-43
2022/05/27 02:42:57;;;;;;;2.75;1.20;;;;;;;12.76;78.47;100537.30;1764510;80;20928;-44
2022/05/27 02:45:41;;;;;;;1.65;1.35;;;;;;;12.79;78.18;100543.70;1764538;80;20954;-44
2022/05/27 02:48:56;;;;;;;5.35;1.32;;;;;;;12.81;78.06;100547.11;1763002;80;20896;-44
2022/05/27 02:52:03;;;;;;;5.58;1.47;;;;;;;12.84;78.04;100549.63;1770885;80;20962;-43
2022/05/27 02:55:06;;;;;;;5.03;1.57;;;;;;;12.90;78.12;100555.11;1771254;80;21265;-44
2022/05/27 02:57:43;;;;;;;4.17;1.57;;;;;;;12.96;78.11;100558.84;1764437;80;21078;-45
2022/05/27 03:00:23;;;;;;;2.75;1.30;;;;;;;13.02;77.61;100566.92;1769931;80;20893;-45
2022/05/27 03:02:51;;;;;;;2.35;1.62;;;;;;;13.08;77.30;100566.28;1772981;80;20963;-45
2022/05/27 03:05:22;;;;;;;6.92;1.70;;;;;;;13.20;77.02;100575.49;1737435;80;20967;-44
2022/05/27 03:08:23;;;;;;;1.77;1.50;;;;;;;13.26;77.06;100562.78;1774247;80;21028;-44
2022/05/27 03:11:26;;;;;;;3.30;1.47;;;;;;;13.30;76.91;100567.47;1702653;80;21079;-45
2022/05/27 03:14:21;;;;;;;8.08;1.77;;;;;;;13.37;76.51;100572.89;1764697;80;20943;-44
2022/05/27 03:17:02;;;;;;;3.12;1.67;;;;;;;13.42;76.22;100571.00;1768231;80;20897;-45
2022/05/27 03:19:47;;;;;;;2.50;1.32;;;;;;;13.48;75.98;100572.15;1772951;80;21573;-45
2022/05/27 03:22:42;;;;;;;6.08;1.40;;;;;;;13.55;75.70;100570.70;1769342;80;21272;-44
2022/05/27 03:25:44;;;;;;;2.52;1.27;;;;;;;13.59;75.95;100574.91;1775458;80;21107;-44
2022/05/27 03:29:04;;;;;;;2.62;1.30;;;;;;;13.62;76.05;100581.31;1768780;80;20956;-44
2022/05/27 03:31:40;;;;;;;3.35;1.45;;;;;;;13.66;75.70;100586.83;1773054;80;21449;-45
2022/05/27 03:34:35;;;;;;;1.40;1.20;;;;;;;13.72;75.87;100594.44;1763398;80;20958;-45
2022/05/27 03:37:29;;;;;;;4.93;1.07;;;;;;;13.77;76.24;100589.98;1731829;80;21283;-45
2022/05/27 03:40:12;;;;;;;4.25;1.17;;;;;;;13.85;75.67;100584.98;1772185;80;20968;-45
2022/05/27 03:42:39;;;;;;;1.37;1.22;;;;;;;13.92;75.45;100581.30;1767563;80;21098;-44
2022/05/27 03:45:18;;;;;;;2.37;1.35;;;;;;;14.02;75.86;100577.53;1762966;80;20970;-45
2022/05/27 03:47:45;;;;;;;1.25;1.10;;;;;;;14.18;75.56;100579.20;1770203;80;20929;-44
2022/05/27 03:50:19;;;;;;;1.70;1.60;;;;;;;14.39;74.76;100580.69;1775388;80;21244;-45
2022/05/27 03:52:47;;;;;;;5.80;1.80;;;;;;;14.64;74.29;100574.67;1770852;80;21023;-45
2022/05/27 03:55:19;;;;;;;4.03;1.45;;;;;;;14.87;72.89;100572.64;1771761;80;20905;-45
2022/05/27 03:57:46;;;;;;;2.00;1.30;;;;;;;15.07;72.73;100571.09;1769440;80;20998;-45
2022/05/27 04:00:14;;;;;;;7.00;1.70;;;;;;;15.30;71.42;100572.87;1765565;80;20999;-45
2022/05/27 04:02:42;;;;;;;7.33;1.05;;;;;;;15.47;70.17;100567.50;1738583;80;21152;-45
2022/05/27 04:05:12;;;;;;;6.97;2.52;;;;;;;15.63;69.86;100570.38;1767085;80;20983;-45
2022/05/27 04:07:41;;;;;;;2.12;1.20;;;;;;;15.72;69.10;100570.48;1763115;80;20939;-45
2022/05/27 04:10:08;;;;;;;2.02;1.20;;;;;;;15.84;69.42;100568.70;1762869;80;20927;-45
2022/05/27 04:12:36;;;;;;;1.90;1.22;;;;;;;15.96;68.49;100567.41;1769503;80;20893;-45
2022/05/27 04:15:05;;;;;;;5.15;1.30;;;;;;;16.05;67.82;100571.41;1775011;80;22057;-45
2022/05/27 04:17:32;;;;;;;4.20;1.30;;;;;;;16.11;68.02;100575.08;1771633;80;22269;-45
2022/05/27 04:20:09;;;;;;;1.47;1.00;;;;;;;16.17;67.90;100580.52;1774375;80;20893;-45
2022/05/27 04:22:36;;;;;;;3.65;1.22;;;;;;;16.18;67.72;100580.48;1766402;80;20939;-45
2022/05/27 04:25:05;;;;;;;7.10;1.25;;;;;;;16.23;68.13;100581.13;1771523;80;21604;-45
2022/05/27 04:27:32;;;;;;;2.65;1.30;;;;;;;16.31;68.45;100591.72;1773254;80;21434;-45
2022/05/27 04:29:59;;;;;;;2.50;1.30;;;;;;;16.42;68.10;100586.06;1770459;80;20904;-45
2022/05/27 04:32:26;;;;;;;5.50;2.17;;;;;;;16.57;67.59;100591.98;1764841;80;21002;-44
2022/05/27 04:34:54;;;;;;;2.80;1.65;;;;;;;16.72;67.28;100598.77;1772514;80;20916;-45
2022/05/27 04:37:21;;;;;;;5.15;1.27;;;;;;;16.81;66.60;100600.54;1773044;80;20952;-45
2022/05/27 04:39:47;;;;;;;12.23;1.55;;;;;;;16.82;66.20;100596.17;1766749;80;21237;-45
2022/05/27 04:42:15;;;;;;;2.47;1.27;;;;;;;16.91;67.68;100605.36;1766675;80;21013;-45
2022/05/27 04:44:41;;;;;;;3.15;1.27;;;;;;;17.06;66.15;100607.84;1774319;80;21544;-45
2022/05/27 04:47:08;;;;;;;9.25;1.60;;;;;;;17.21;65.79;100614.16;1774107;80;20984;-46
2022/05/27 04:49:53;;;;;;;2.17;1.20;;;;;;;17.32;65.53;100624.16;1770436;80;21443;-45
2022/05/27 04:52:24;;;;;;;3.65;1.30;;;;;;;17.33;63.92;100622.77;1771017;80;21264;-46
2022/05/27 04:54:51;;;;;;;2.52;1.15;;;;;;;17.30;63.63;100622.91;1773672;80;20928;-45
2022/05/27 04:57:22;;;;;;;6.97;1.30;;;;;;;17.30;63.54;100610.27;1765329;80;20915;-45
2022/05/27 04:59:49;;;;;;;3.40;1.30;;;;;;;17.32;63.29;100611.08;1772955;80;20928;-45
2022/05/27 05:02:20;;;;;;;2.90;1.10;;;;;;;17.30;63.74;100612.88;1771217;80;20895;-45
2022/05/27 05:04:51;;;;;;;7.90;1.15;;;;;;;17.34;63.66;100615.78;1764505;80;22056;-45
2022/05/27 05:07:22;;;;;;;2.95;1.40;;;;;;;17.41;64.64;100624.19;1766189;80;20911;-45
2022/05/27 05:09:49;;;;;;;2.98;1.40;;;;;;;17.58;63.26;100621.67;1717389;80;20968;-45
2022/05/27 05:12:22;;;;;;;4.22;1.37;;;;;;;17.62;62.81;100625.01;1772972;80;20889;-44
2022/05/27 05:14:45;;;;;;;1.30;1.20;;;;;;;17.70;62.46;100619.43;1768412;80;20916;-45
2022/05/27 05:17:12;;;;;;;2.12;1.30;;;;;;;17.69;62.89;100621.19;1762961;80;21082;-45
2022/05/27 05:19:41;;;;;;;3.50;1.20;;;;;;;17.78;62.45;100626.46;1766134;80;21031;-45
2022/05/27 05:22:08;;;;;;;9.30;1.60;;;;;;;17.74;61.75;100617.89;1773036;80;21073;-46
2022/05/27 05:24:34;;;;;;;2.35;1.02;;;;;;;17.73;62.80;100614.88;1766823;80;21794;-45
2022/05/27 05:27:01;;;;;;;1.90;1.35;;;;;;;17.80;63.48;100618.91;1768294;80;20904;-46
2022/05/27 05:29:29;;;;;;;7.47;1.20;;;;;;;18.02;62.97;100615.32;1774729;80;21565;-45
2022/05/27 05:31:56;;;;;;;4.50;1.17;;;;;;;18.09;62.37;100625.92;1773774;80;20901;-45
2022/05/27 05:34:22;;;;;;;6.35;1.52;;;;;;;18.08;61.72;100620.30;1764744;80;21031;-45
2022/05/27 05:36:50;;;;;;;6.15;1.42;;;;;;;18.11;62.35;100626.31;1769912;80;20928;-45
2022/05/27 05:39:17;;;;;;;3.67;1.22;;;;;;;18.16;61.09;100630.38;1775194;80;20964;-45
2022/05/27 05:41:44;;;;;;;4.20;1.30;;;;;;;18.15;61.18;100637.86;1765786;80;21791;-45
2022/05/27 05:44:12;;;;;;;3.80;1.17;;;;;;;18.10;61.48;100624.13;1731469;80;21053;-45
2022/05/27 05:46:40;;;;;;;4.00;1.10;;;;;;;18.02;61.95;100631.52;1774059;80;21555;-45
2022/05/27 05:49:07;;;;;;;6.42;1.37;;;;;;;18.08;62.79;100639.94;1772796;80;20984;-45
2022/05/27 05:51:35;;;;;;;7.22;1.20;;;;;;;18.13;62.13;100634.94;1775452;80;21458;-45
2022/05/27 05:54:03;;;;;;;6.30;2.27;;;;;;;18.21;62.75;100642.83;1769973;80;21284;-45
2022/05/27 05:56:31;;;;;;;1.45;1.20;;;;;;;18.33;61.80;100637.45;1766171;80;20895;-45
2022/05/27 05:58:58;;;;;;;1.55;1.45;;;;;;;18.41;62.58;100638.38;1769089;80;21459;-45
2022/05/27 06:01:25;;;;;;;2.02;1.40;;;;;;;18.61;61.28;100650.53;1773308;80;20932;-45
2022/05/27 06:03:52;;;;;;;4.87;1.35;;;;;;;18.53;61.14;100646.97;1769431;80;21481;-45
2022/05/27 06:06:21;;;;;;;4.70;1.42;;;;;;;18.51;61.46;100650.58;1763029;80;21196;-44
2022/05/27 06:08:48;;;;;;;5.80;1.60;;;;;;;18.49;61.54;100655.91;1768195;80;20988;-45
2022/05/27 06:11:15;;;;;;;1.25;1.15;;;;;;;18.52;61.34;100650.95;1771150;80;21005;-44
2022/05/27 06:13:43;;;;;;;2.40;1.37;;;;;;;18.60;61.44;100659.31;1775758;80;20925;-44
2022/05/27 06:16:10;;;;;;;3.27;1.50;;;;;;;18.50;60.60;100653.67;1773894;80;20932;-44
2022/05/27 06:18:38;;;;;;;6.90;1.67;;;;;;;18.43;61.05;100655.34;1771385;80;21070;-44
2022/05/27 06:21:05;;;;;;;4.30;1.70;;;;;;;18.34;62.35;100667.11;1770937;80;20920;-44
2022/05/27 06:23:32;;;;;;;4.40;1.60;;;;;;;18.36;62.00;100653.48;1770069;80;20924;-44
2022/05/27 06:26:06;;;;;;;1.60;1.20;;;;;;;18.47;61.75;100655.58;1770075;80;20983;-44
2022/05/27 06:36:56;;;;;;;11.55;1.85;;;;;;;18.55;61.03;100661.29;1771604;80;20990;-44
2022/05/27 06:39:23;;;;;;;5.40;1.60;;;;;;;18.56;60.67;100645.95;1766967;80;20955;-44
2022/05/27 06:41:52;;;;;;;5.83;1.40;;;;;;;18.54;61.90;100641.25;1764825;80;21505;-44
2022/05/27 06:44:19;;;;;;;3.25;1.60;;;;;;;18.65;62.55;100648.58;1767571;80;21207;-44
2022/05/27 06:46:47;;;;;;;6.97;1.77;;;;;;;18.78;60.19;100645.75;1768822;80;20897;-44
2022/05/27 06:49:16;;;;;;;2.00;1.60;;;;;;;18.69;60.96;100642.73;1771900;80;20889;-45
2022/05/27 06:51:43;;;;;;;2.50;1.52;;;;;;;18.63;61.49;100643.44;1772706;80;20968;-45
2022/05/27 06:54:10;;;;;;;3.72;1.60;;;;;;;18.66;61.57;100651.14;1774265;80;21348;-45
2022/05/27 06:56:38;;;;;;;3.65;1.77;;;;;;;18.63;60.52;100643.44;1771153;80;21719;-44
2022/05/27 06:59:05;;;;;;;3.75;1.95;;;;;;;18.57;60.21;100647.67;1774310;80;20976;-45
2022/05/27 07:01:33;;;;;;;1.95;1.70;;;;;;;18.46;60.92;100660.44;1768444;80;21039;-45
2022/05/27 07:03:59;;;;;;;4.05;1.82;;;;;;;18.35;61.90;100661.81;1774864;80;20992;-45
2022/05/27 07:06:31;;;;;;;3.10;1.80;;;;;;;18.45;62.58;100660.91;1770538;80;20942;-45
2022/05/27 07:09:01;;;;;;;4.50;1.70;;;;;;;18.54;61.72;100670.08;1774358;80;21284;-45
2022/05/27 07:11:28;;;;;;;4.90;1.67;;;;;;;18.64;61.58;100667.86;1762990;80;20968;-45
2022/05/27 07:13:56;;;;;;;2.22;1.70;;;;;;;18.80;60.49;100657.46;1770207;80;21036;-45
2022/05/27 07:16:23;;;;;;;4.83;1.62;;;;;;;18.85;61.32;100664.66;1774333;80;20904;-45
2022/05/27 07:18:50;;;;;;;3.72;1.40;;;;;;;18.77;60.20;100660.23;1775275;80;21055;-45
2022/05/27 07:21:17;;;;;;;6.65;1.65;;;;;;;18.75;60.68;100662.09;1763059;80;21104;-45
2022/05/27 07:23:45;;;;;;;4.28;1.70;;;;;;;18.75;60.32;100660.78;1763238;80;20974;-45
2022/05/27 07:26:12;;;;;;;2.25;1.87;;;;;;;18.78;60.34;100670.66;1767720;80;21525;-45
2022/05/27 07:28:40;;;;;;;1.80;1.50;;;;;;;18.79;60.18;100670.19;1770406;80;20952;-44
2022/05/27 07:31:06;;;;;;;4.15;1.50;;;;;;;18.85;60.31;100671.22;1766015;80;21005;-45
2022/05/27 07:33:33;;;;;;;5.90;1.45;;;;;;;19.00;59.32;100675.32;1769301;80;21280;-45
2022/05/27 07:36:00;;;;;;;2.40;1.60;;;;;;;18.96;58.67;100674.13;1772372;80;21014;-45
2022/05/27 07:38:27;;;;;;;2.33;1.27;;;;;;;18.99;58.41;100676.25;1769910;80;20911;-45
2022/05/27 07:40:54;;;;;;;4.00;1.75;;;;;;;19.03;58.41;100684.34;1763140;80;21567;-45
2022/05/27 07:43:22;;;;;;;12.75;1.42;;;;;;;18.96;58.23;100679.38;1769706;80;20885;-45
2022/05/27 07:45:49;;;;;;;2.02;1.52;;;;;;;19.07;58.07;100683.25;1763115;80;21383;-45
2022/05/27 07:48:16;;;;;;;3.90;1.20;;;;;;;19.18;57.91;100678.77;1774733;80;20975;-46
2022/05/27 07:50:43;;;;;;;2.87;1.15;;;;;;;19.33;57.12;100683.73;1768353;80;20980;-46
2022/05/27 07:53:11;;;;;;;5.90;1.32;;;;;;;19.42;55.63;100675.36;1768342;80;21514;-46
2022/05/27 07:55:38;;;;;;;2.70;1.10;;;;;;;19.37;55.19;100676.08;1764537;80;21006;-45
2022/05/27 07:58:06;;;;;;;5.03;1.45;;;;;;;19.31;55.33;100680.30;1763437;80;21364;-45
2022/05/27 08:00:35;;;;;;;3.52;1.30;;;;;;;19.33;55.72;100676.69;1772770;80;21441;-45
2022/05/27 08:03:03;;;;;;;4.90;1.20;;;;;;;19.46;55.11;100672.95;1774375;80;21074;-45
2022/05/27 08:05:30;;;;;;;4.08;1.22;;;;;;;19.69;56.65;100674.84;1771059;80;20852;-45
2022/05/27 08:07:57;;;;;;;3.10;1.10;;;;;;;20.04;55.53;100664.21;1766614;80;20869;-46
2022/05/27 08:10:28;;;;;;;5.45;1.05;;;;;;;20.19;54.29;100670.87;1764802;80;21238;-45
2022/05/27 08:12:55;;;;;;;8.68;1.17;;;;;;;20.25;54.22;100666.59;1738098;80;20976;-45
2022/05/27 08:15:22;;;;;;;4.50;1.17;;;;;;;20.45;54.51;100669.88;1772614;80;20884;-45
2022/05/27 08:17:49;;;;;;;2.65;1.47;;;;;;;20.55;54.94;100672.36;1774781;80;21044;-45
2022/05/27 08:20:19;;;;;;;3.60;1.40;;;;;;;20.62;56.11;100663.66;1773320;80;20941;-45
2022/05/27 08:22:47;;;;;;;3.50;1.85;;;;;;;20.56;53.58;100664.84;1772358;80;21042;-45
2022/05/27 08:25:14;;;;;;;1.30;1.20;;;;;;;20.67;54.11;100667.72;1765389;80;20965;-45
2022/05/27 08:27:41;;;;;;;7.65;1.30;;;;;;;20.89;54.05;100657.76;1766378;80;21462;-45
2022/05/27 08:30:12;;;;;;;2.67;1.10;;;;;;;21.05;53.61;100661.64;1775307;80;21004;-45
2022/05/27 08:32:38;;;;;;;3.98;1.50;;;;;;;21.10;52.71;100662.23;1766586;80;20966;-45
2022/05/27 08:38:02;;;;;;;3.20;1.20;;;;;;;21.03;52.91;100667.47;1775138;80;20925;-45
2022/05/27 08:40:32;;;;;;;;;;;;;;;21.07;53.64;100659.77;1776528;80;20929;-45
2022/05/27 08:43:38;;;;;;;3.50;1.40;;;;;;;21.16;52.75;100663.18;1764224;80;20096;-45
2022/05/27 08:46:10;;;;;;;10.28;1.75;;;;;;;21.24;52.47;100662.23;1771729;80;20975;-45
2022/05/27 08:48:39;;;;;;;5.37;1.10;;;;;;;21.45;52.00;100661.02;1773520;80;21241;-45
2022/05/27 08:51:23;;;;;;;2.20;1.50;;;;;;;21.41;51.57;100656.89;1766622;80;21002;-45
2022/05/27 08:54:04;;;;;;;2.87;1.30;;;;;;;21.46;51.99;100647.77;1764210;80;21042;-45
2022/05/27 08:59:37;;;;;;;2.35;1.32;;;;;;;21.73;50.46;100648.35;1769466;80;20889;-46
2022/05/27 09:02:39;;;;;;;6.40;0.93;;;;;;;21.74;51.28;100643.45;1771328;80;22027;-46
2022/05/27 09:05:17;;;;;;;2.37;1.02;;;;;;;21.79;50.13;100641.38;1770355;80;21380;-45
2022/05/27 09:08:05;;;;;;;4.90;1.10;;;;;;;21.88;50.33;100633.36;1768428;80;20899;-45
2022/05/27 09:11:16;;;;;;;4.97;1.22;;;;;;;21.98;49.77;100634.09;1769096;80;21407;-45
2022/05/27 09:13:52;;;;;;;3.02;0.93;;;;;;;22.05;49.43;100632.28;1773316;80;20925;-46
2022/05/27 09:16:44;;;;;;;5.08;1.10;;;;;;;22.07;49.69;100629.56;1770156;80;21410;-46
2022/05/27 09:19:27;;;;;;;4.78;1.10;;;;;;;22.28;49.87;100627.80;1765082;80;21526;-45
2022/05/27 09:22:39;;;;;;;4.92;1.27;;;;;;;22.47;49.47;100624.34;1773241;80;21583;-45
2022/05/27 09:25:26;;;;;;;3.47;0.93;;;;;;;22.41;48.99;100619.45;1765787;80;21029;-46
2022/05/27 09:28:22;;;;;;;1.90;1.00;;;;;;;22.33;48.39;100615.99;1766790;80;20989;-46
2022/05/27 09:30:50;;;;;;;3.37;1.30;;;;;;;22.39;48.65;100610.34;1769757;80;21253;-45
2022/05/27 09:33:19;;;;;;;7.87;1.10;;;;;;;22.58;48.76;100614.40;1772135;80;20924;-45
2022/05/27 09:35:50;;;;;;;3.70;1.45;;;;;;;22.68;47.78;100613.31;1774282;80;21102;-45
2022/05/27 09:38:24;;;;;;;5.97;1.17;;;;;;;22.84;48.55;100598.60;1771302;80;21669;-45
2022/05/27 09:41:02;;;;;;;5.58;0.85;;;;;;;23.00;48.06;100602.84;1769331;80;21141;-46
2022/05/27 09:43:46;;;;;;;2.90;1.00;;;;;;;23.28;48.86;100589.08;1770532;80;21881;-46
2022/05/27 09:46:28;;;;;;;7.28;1.05;;;;;;;23.44;44.56;100590.16;1770028;80;20937;-45
2022/05/27 09:48:57;;;;;;;7.25;0.90;;;;;;;23.58;44.74;100583.89;1766635;80;21421;-45
2022/05/27 09:51:29;;;;;;;7.40;1.00;;;;;;;23.63;45.53;100583.11;1774339;80;20979;-45
2022/05/27 09:54:17;;;;;;;6.08;0.72;;;;;;;23.75;43.76;100585.34;1774417;80;21019;-45
2022/05/27 09:56:57;;;;;;;1.72;0.80;;;;;;;23.54;43.42;100581.47;1768472;80;21279;-45
2022/05/27 09:59:37;;;;;;;1.87;1.10;;;;;;;23.22;44.32;100579.29;1749370;80;20992;-45
2022/05/27 10:02:24;;;;;;;3.17;1.25;;;;;;;23.18;45.33;100578.28;1766348;80;20954;-45
2022/05/27 10:05:00;;;;;;;5.53;1.12;;;;;;;23.14;45.13;100567.58;1768524;80;20935;-45
2022/05/27 10:07:45;;;;;;;1.15;0.85;;;;;;;23.31;45.92;100564.63;1763864;80;20922;-45
2022/05/27 10:10:28;;;;;;;1.55;0.90;;;;;;;23.42;44.91;100563.88;1766546;80;21209;-45
2022/05/27 10:13:20;;;;;;;2.20;1.10;;;;;;;23.71;45.27;100564.03;1766678;80;20927;-45
2022/05/27 10:15:48;;;;;;;4.67;1.10;;;;;;;23.96;43.20;100561.29;1763563;80;20927;-45
2022/05/27 10:18:24;;;;;;;3.58;0.98;;;;;;;23.98;44.20;100562.52;1775327;80;21435;-45
2022/05/27 10:21:03;;;;;;;7.78;0.95;;;;;;;24.05;43.74;100553.20;1774295;80;21609;-45
2022/05/27 10:23:35;;;;;;;6.17;0.80;;;;;;;24.07;43.10;100560.53;1771920;80;21549;-45
2022/05/27 10:26:30;;;;;;;2.50;1.15;;;;;;;24.18;42.13;100560.23;1772814;80;20919;-45
2022/05/27 10:29:08;;;;;;;1.72;0.85;;;;;;;24.13;41.83;100549.16;1764540;80;21070;-45
2022/05/27 10:31:35;;;;;;;4.35;1.10;;;;;;;24.09;42.24;100555.97;1771463;80;21537;-44
2022/05/27 10:34:02;;;;;;;6.62;1.25;;;;;;;23.92;42.41;100553.72;1766858;80;20849;-44
2022/05/27 10:37:03;;;;;;;1.55;0.90;;;;;;;23.68;41.94;100551.91;1774029;80;21252;-44
2022/05/27 10:39:38;;;;;;;4.30;0.90;;;;;;;23.57;42.68;100554.47;1773853;80;20956;-46
2022/05/27 10:42:29;;;;;;;1.85;0.90;;;;;;;23.28;41.96;100549.47;1774974;80;20997;-45
2022/05/27 10:45:04;;;;;;;4.90;1.17;;;;;;;23.06;42.93;100548.30;1736370;80;21485;-44
2022/05/27 10:48:13;;;;;;;3.05;1.20;;;;;;;23.05;43.02;100546.63;1763003;80;21579;-47
2022/05/27 10:50:52;;;;;;;3.47;0.98;;;;;;;23.23;43.64;100547.12;1774494;80;21167;-45
2022/05/27 10:53:46;;;;;;;1.42;1.12;;;;;;;23.75;42.75;100533.83;1769968;80;20895;-46
2022/05/27 10:56:19;;;;;;;4.58;0.80;;;;;;;24.10;40.38;100539.64;1764685;80;21002;-45
2022/05/27 11:02:12;;;;;;;3.33;0.80;;;;;;;24.65;40.56;100524.05;1766581;80;21622;-46
2022/05/27 11:04:59;;;;;;;2.92;0.93;;;;;;;24.82;39.24;100525.41;1771792;80;21239;-45
2022/05/27 11:08:04;;;;;;;5.20;0.98;;;;;;;24.92;38.74;100516.28;1764412;80;20895;-46
2022/05/27 11:10:39;;;;;;;3.52;1.02;;;;;;;24.95;39.22;100516.03;1768061;80;20986;-46
2022/05/27 11:16:21;;;;;;;;;;;;;;;25.24;36.89;100519.50;1768475;80;21520;-45
2022/05/27 11:19:03;;;;;;;1.10;1.05;;;;;;;24.96;37.07;100517.72;1764040;80;20447;-45
2022/05/27 11:21:56;;;;;;;3.90;1.00;;;;;;;24.80;38.46;100511.46;1766884;80;20971;-46
2022/05/27 11:24:56;;;;;;;1.77;0.80;;;;;;;24.92;38.33;100515.42;1772514;80;20986;-46
2022/05/27 11:27:37;;;;;;;3.30;1.00;;;;;;;25.01;38.50;100512.07;1770471;80;20971;-46
2022/05/27 11:30:18;;;;;;;6.62;1.00;;;;;;;25.19;38.51;100512.88;1765899;80;20933;-46
2022/05/27 11:33:11;;;;;;;2.35;0.70;;;;;;;25.06;37.26;100508.57;1770554;80;21261;-46
2022/05/27 11:36:23;;;;;;;3.30;0.80;;;;;;;25.03;36.27;100501.34;1768788;80;21018;-47
2022/05/27 11:39:04;;;;;;;4.55;1.35;;;;;;;24.99;36.49;100505.20;1771959;80;21016;-47
2022/05/27 11:41:55;;;;;;;1.07;0.80;;;;;;;24.92;36.53;100503.51;1772595;80;21004;-46
2022/05/27 11:44:43;;;;;;;4.05;0.78;;;;;;;24.75;37.89;100506.98;1771134;80;20984;-47
2022/05/27 11:47:37;;;;;;;2.92;0.85;;;;;;;24.68;37.88;100507.94;1775224;80;21027;-46
2022/05/27 11:50:49;;;;;;;0.90;0.78;;;;;;;24.50;37.97;100513.31;1774424;80;21308;-46
2022/05/27 11:54:08;;;;;;;5.25;1.10;;;;;;;24.01;39.02;100509.91;1767129;80;20982;-46
2022/05/27 11:57:08;;;;;;;2.95;1.10;;;;;;;23.66;39.57;100511.55;1720397;80;20964;-47
2022/05/27 11:59:52;;;;;;;2.15;0.70;;;;;;;23.38;40.19;100509.10;1766641;80;21599;-46
2022/05/27 12:02:58;;;;;;;4.35;0.90;;;;;;;23.41;40.06;100506.73;1773655;80;22005;-46
2022/05/27 12:05:41;;;;;;;2.37;1.05;;;;;;;23.46;40.59;100506.38;1766454;80;21014;-46
2022/05/27 12:08:16;;;;;;;2.17;0.90;;;;;;;23.70;40.18;100500.27;1773731;80;20998;-46
2022/05/27 12:10:47;;;;;;;;;;;;;;;24.21;38.90;100500.02;1768881;80;21013;-46
2022/05/27 12:13:50;;;;;;;2.15;0.85;;;;;;;24.47;39.19;100498.50;1766744;80;20179;-47
2022/05/27 12:16:31;;;;;;;1.90;0.98;;;;;;;24.52;38.44;100494.20;1772381;80;21236;-47
2022/05/27 12:19:02;;;;;;;6.17;0.90;;;;;;;24.34;38.66;100489.34;1766485;80;21035;-47
2022/05/27 12:21:33;;;;;;;1.90;0.80;;;;;;;24.28;38.42;100494.28;1763636;80;20916;-47
2022/05/27 12:24:04;;;;;;;4.30;0.90;;;;;;;24.29;39.20;100493.33;1738560;80;21013;-45
2022/05/27 12:26:34;;;;;;;3.87;0.80;;;;;;;24.29;39.14;100484.89;1752339;80;21040;-46
2022/05/27 12:29:09;;;;;;;3.27;0.88;;;;;;;24.31;39.68;100483.47;1771043;80;21913;-46
2022/05/27 12:31:38;;;;;;;1.37;0.72;;;;;;;24.64;39.86;100476.53;1766725;80;20964;-46
2022/05/27 12:34:30;;;;;;;2.25;0.80;;;;;;;24.81;38.28;100473.45;1766180;80;21089;-46